createdAt,value
2023-04-20T00:00:47.681Z,13.41
2023-04-20T00:03:14.639Z,12.85
2023-04-20T00:05:41.356Z,12.23
2023-04-20T00:08:08.170Z,11.89
2023-04-20T00:10:34.718Z,12.24
2023-04-20T00:13:01.224Z,12.70
2023-04-20T00:15:27.838Z,12.99
2023-04-20T00:17:54.419Z,13.15
2023-04-20T00:20:21.022Z,13.23
2023-04-20T00:22:47.688Z,13.26
2023-04-20T00:25:14.310Z,13.32
2023-04-20T00:27:40.907Z,13.38
2023-04-20T00:30:08.342Z,13.42
2023-04-20T00:32:36.117Z,13.46
2023-04-20T00:35:02.847Z,13.41
2023-04-20T00:37:29.725Z,12.84
2023-04-20T00:39:57.656Z,12.20
2023-04-20T00:42:24.633Z,11.82
2023-04-20T00:44:51.561Z,12.08
2023-04-20T00:47:18.154Z,12.43
2023-04-20T00:49:45.006Z,12.68
2023-04-20T00:52:11.760Z,12.88
2023-04-20T00:54:39.011Z,13.04
2023-04-20T00:57:05.804Z,13.18
2023-04-20T00:59:34.616Z,13.29
2023-04-20T01:02:01.359Z,13.38
2023-04-20T01:04:29.347Z,13.48
2023-04-20T01:06:58.388Z,13.49
2023-04-20T01:09:24.892Z,13.01
2023-04-20T01:11:51.419Z,12.46
2023-04-20T01:14:18.042Z,12.05
2023-04-20T01:16:44.964Z,11.85
2023-04-20T01:19:12.610Z,12.25
2023-04-20T01:21:39.135Z,12.69
2023-04-20T01:24:06.406Z,13.01
2023-04-20T01:26:32.985Z,13.23
2023-04-20T01:28:59.619Z,13.37
2023-04-20T01:31:26.438Z,13.49
2023-04-20T01:33:52.972Z,13.61
2023-04-20T01:36:21.425Z,13.73
2023-04-20T01:38:48.642Z,13.73
2023-04-20T01:41:15.771Z,13.22
2023-04-20T01:43:42.554Z,12.64
2023-04-20T01:46:11.717Z,12.32
2023-04-20T01:48:39.692Z,12.61
2023-04-20T01:51:06.313Z,13.01
2023-04-20T01:53:32.804Z,13.32
2023-04-20T01:55:59.483Z,13.53
2023-04-20T01:58:26.081Z,13.66
2023-04-20T02:00:52.817Z,13.77
2023-04-20T02:03:19.594Z,13.76
2023-04-20T02:05:47.002Z,13.25
2023-04-20T02:08:13.712Z,12.64
2023-04-20T02:10:40.374Z,12.17
2023-04-20T02:13:08.979Z,11.94
2023-04-20T02:19:01.623Z,12.76
2023-04-20T02:21:28.285Z,13.03
2023-04-20T02:23:54.894Z,13.18
2023-04-20T02:26:21.465Z,13.26
2023-04-20T02:28:48.000Z,13.31
2023-04-20T02:31:14.561Z,13.38
2023-04-20T02:33:50.016Z,13.46
2023-04-20T02:36:29.813Z,13.54
2023-04-20T02:38:56.454Z,13.71
2023-04-20T02:41:23.131Z,13.74
2023-04-20T02:43:49.740Z,13.24
2023-04-20T02:46:17.391Z,12.69
2023-04-20T02:48:44.101Z,12.26
2023-04-20T02:51:11.075Z,12.07
2023-04-20T02:53:42.385Z,12.49
2023-04-20T02:56:16.746Z,12.96
2023-04-20T02:58:48.320Z,13.23
2023-04-20T03:01:24.165Z,13.39
2023-04-20T03:03:57.865Z,13.56
2023-04-20T03:06:24.757Z,13.64
2023-04-20T03:08:54.066Z,13.57
2023-04-20T03:11:39.229Z,12.97
2023-04-20T03:14:06.248Z,12.40
2023-04-20T03:16:33.350Z,12.05
2023-04-20T03:19:00.020Z,12.32
2023-04-20T03:21:26.650Z,12.65
2023-04-20T03:23:53.753Z,12.85
2023-04-20T03:26:20.462Z,13.00
2023-04-20T03:29:05.937Z,13.11
2023-04-20T03:31:32.661Z,13.21
2023-04-20T03:33:59.569Z,13.32
2023-04-20T03:36:28.358Z,13.50
2023-04-20T03:38:56.465Z,13.65
2023-04-20T03:41:23.173Z,13.71
2023-04-20T03:43:49.803Z,13.75
2023-04-20T03:46:16.492Z,13.15
2023-04-20T03:48:44.397Z,12.45
2023-04-20T03:51:10.915Z,12.08
2023-04-20T03:53:39.587Z,12.36
2023-04-20T03:56:07.682Z,12.78
2023-04-20T03:58:34.326Z,13.07
2023-04-20T04:01:10.530Z,13.33
2023-04-20T04:03:39.137Z,13.55
2023-04-20T04:06:07.073Z,13.66
2023-04-20T04:08:33.724Z,13.14
2023-04-20T04:11:00.834Z,12.52
2023-04-20T04:13:27.446Z,12.21
2023-04-20T04:15:54.028Z,12.62
2023-04-20T04:18:22.913Z,13.19
2023-04-20T04:20:49.879Z,13.62
2023-04-20T04:23:16.494Z,13.94
2023-04-20T04:25:47.292Z,14.17
2023-04-20T04:28:14.933Z,14.30
2023-04-20T04:30:48.416Z,13.82
2023-04-20T04:33:15.067Z,13.26
2023-04-20T04:35:43.969Z,13.04
2023-04-20T04:38:13.103Z,13.57
2023-04-20T04:40:41.902Z,14.19
2023-04-20T04:43:10.127Z,14.58
2023-04-20T04:45:43.431Z,14.31
2023-04-20T04:48:12.532Z,13.75
2023-04-20T04:50:39.738Z,13.22
2023-04-20T04:53:06.867Z,13.09
2023-04-20T04:55:33.832Z,13.69
2023-04-20T04:58:01.764Z,14.31
2023-04-20T05:00:29.273Z,14.73
2023-04-20T05:02:56.067Z,14.77
2023-04-20T05:05:23.180Z,14.15
2023-04-20T05:07:49.689Z,13.54
2023-04-20T05:10:16.474Z,13.10
2023-04-20T05:12:43.112Z,12.92
2023-04-20T05:15:10.009Z,13.43
2023-04-20T05:17:36.642Z,13.99
2023-04-20T05:20:06.340Z,14.44
2023-04-20T05:22:33.062Z,14.56
2023-04-20T05:24:59.614Z,14.04
2023-04-20T05:27:26.104Z,13.53
2023-04-20T05:29:52.636Z,13.16
2023-04-20T05:32:19.248Z,12.90
2023-04-20T05:34:45.987Z,13.02
2023-04-20T05:37:13.365Z,13.72
2023-04-20T05:39:40.362Z,14.39
2023-04-20T05:42:06.950Z,14.83
2023-04-20T05:44:34.110Z,14.59
2023-04-20T05:47:00.645Z,14.34
2023-04-20T05:49:27.171Z,14.25
2023-04-20T05:51:53.749Z,14.27
2023-04-20T05:54:20.441Z,14.41
2023-04-20T05:56:46.950Z,14.60
2023-04-20T05:59:13.604Z,14.81
2023-04-20T06:01:40.246Z,15.01
2023-04-20T06:04:07.102Z,15.19
2023-04-20T06:06:34.100Z,15.36
2023-04-20T06:09:00.974Z,15.47
2023-04-20T06:11:27.563Z,15.55
2023-04-20T06:13:54.300Z,15.60
2023-04-20T06:16:21.124Z,15.61
2023-04-20T06:18:47.839Z,15.57
2023-04-20T06:21:16.174Z,15.54
2023-04-20T06:23:44.320Z,15.62
2023-04-20T06:26:11.528Z,15.91
2023-04-20T06:28:38.678Z,16.20
2023-04-20T06:31:06.085Z,16.38
2023-04-20T06:33:32.801Z,16.53
2023-04-20T06:35:59.630Z,16.68
2023-04-20T06:38:26.399Z,16.82
2023-04-20T06:40:53.012Z,17.23
2023-04-20T06:43:19.641Z,17.84
2023-04-20T06:45:46.698Z,18.31
2023-04-20T06:48:30.128Z,18.68
2023-04-20T06:50:58.428Z,19.21
2023-04-20T06:53:25.167Z,19.84
2023-04-20T06:55:54.839Z,20.33
2023-04-20T06:58:21.708Z,20.91
2023-04-20T07:00:48.262Z,21.79
2023-04-20T07:03:14.923Z,22.78
2023-04-20T07:05:41.694Z,23.69
2023-04-20T07:08:09.460Z,24.59
2023-04-20T07:10:36.182Z,25.26
2023-04-20T07:13:02.755Z,26.00
2023-04-20T07:15:29.330Z,26.77
2023-04-20T07:17:55.986Z,27.73
2023-04-20T07:20:22.654Z,28.73
2023-04-20T07:22:49.287Z,29.36
2023-04-20T07:25:17.773Z,30.10
2023-04-20T07:27:44.456Z,30.93
2023-04-20T07:30:12.115Z,31.59
2023-04-20T07:32:40.221Z,32.17
2023-04-20T07:35:07.772Z,32.59
2023-04-20T07:37:34.434Z,32.97
2023-04-20T07:40:01.178Z,33.48
2023-04-20T07:42:29.852Z,33.80
2023-04-20T07:44:56.620Z,33.70
2023-04-20T07:47:23.272Z,33.36
2023-04-20T07:49:50.308Z,32.90
2023-04-20T07:52:18.289Z,32.34
2023-04-20T07:54:45.752Z,32.29
2023-04-20T07:57:12.668Z,32.78
2023-04-20T07:59:40.877Z,33.47
2023-04-20T08:02:08.568Z,34.19
2023-04-20T08:04:39.254Z,34.83
2023-04-20T08:07:06.175Z,35.40
2023-04-20T08:09:33.220Z,35.82
2023-04-20T08:12:00.654Z,36.01
2023-04-20T08:14:27.652Z,36.21
2023-04-20T08:16:54.361Z,36.23
2023-04-20T08:19:21.244Z,36.49
2023-04-20T08:21:47.796Z,36.76
2023-04-20T08:24:14.487Z,37.07
2023-04-20T08:26:43.452Z,37.16
2023-04-20T08:29:10.554Z,37.37
2023-04-20T08:31:37.293Z,37.59
2023-04-20T08:34:04.428Z,37.47
2023-04-20T08:36:32.265Z,36.95
2023-04-20T08:39:13.941Z,36.16
2023-04-20T08:41:41.447Z,35.36
2023-04-20T08:44:08.569Z,34.92
2023-04-20T08:46:37.705Z,34.56
2023-04-20T08:49:04.410Z,34.35
2023-04-20T08:51:32.682Z,34.27
2023-04-20T08:54:05.546Z,33.71
2023-04-20T08:56:44.134Z,32.99
2023-04-20T08:59:12.898Z,32.87
2023-04-20T09:01:41.729Z,33.32
2023-04-20T09:04:29.614Z,33.93
2023-04-20T09:06:56.719Z,34.35
2023-04-20T09:09:25.694Z,34.65
2023-04-20T09:12:07.218Z,35.15
2023-04-20T09:14:45.206Z,35.48
2023-04-20T09:17:14.323Z,35.53
2023-04-20T09:19:41.587Z,35.39
2023-04-20T09:22:08.169Z,35.28
2023-04-20T09:24:36.737Z,35.14
2023-04-20T09:27:16.909Z,34.70
2023-04-20T09:29:44.233Z,33.81
2023-04-20T09:32:24.112Z,33.09
2023-04-20T09:34:51.262Z,31.48
2023-04-20T09:37:18.004Z,30.88
2023-04-20T09:39:46.022Z,31.25
2023-04-20T09:42:14.521Z,31.73
2023-04-20T09:44:41.563Z,32.12
2023-04-20T09:47:08.884Z,32.63
2023-04-20T09:49:41.276Z,33.06
2023-04-20T09:52:08.498Z,33.59
2023-04-20T09:54:37.347Z,34.16
2023-04-20T09:57:05.945Z,34.45
2023-04-20T09:59:33.454Z,34.60
2023-04-20T10:02:00.224Z,33.76
2023-04-20T10:04:27.117Z,33.23
2023-04-20T10:06:55.713Z,32.44
2023-04-20T10:09:28.677Z,31.59
2023-04-20T10:12:06.785Z,31.24
2023-04-20T10:14:33.652Z,31.23
2023-04-20T10:17:00.595Z,31.45
2023-04-20T10:19:38.741Z,31.05
2023-04-20T10:22:06.906Z,30.88
2023-04-20T10:24:33.663Z,31.34
2023-04-20T10:27:00.314Z,32.09
2023-04-20T10:29:28.226Z,32.73
2023-04-20T10:31:55.969Z,33.17
2023-04-20T10:34:36.567Z,32.57
2023-04-20T10:37:12.577Z,31.92
2023-04-20T10:39:46.692Z,32.55
2023-04-20T10:42:15.486Z,33.60
2023-04-20T10:44:48.197Z,34.66
2023-04-20T10:47:15.546Z,35.37
2023-04-20T10:49:42.117Z,35.72
2023-04-20T10:52:08.664Z,36.08
2023-04-20T10:54:39.723Z,36.04
2023-04-20T10:57:07.321Z,36.23
2023-04-20T10:59:41.970Z,36.23
2023-04-20T11:02:10.829Z,35.89
2023-04-20T11:04:37.916Z,35.48
2023-04-20T11:07:07.353Z,34.94
2023-04-20T11:09:34.564Z,34.69
2023-04-20T11:12:06.264Z,34.44
2023-04-20T11:14:35.979Z,34.03
2023-04-20T11:17:02.737Z,33.41
2023-04-20T11:19:34.410Z,32.37
2023-04-20T11:22:02.169Z,31.89
2023-04-20T11:24:31.783Z,32.11
2023-04-20T11:26:58.874Z,32.67
2023-04-20T11:29:30.219Z,32.94
2023-04-20T11:31:57.759Z,33.05
2023-04-20T11:34:24.472Z,33.15
2023-04-20T11:36:52.524Z,32.68
2023-04-20T11:39:29.704Z,32.73
2023-04-20T11:41:59.349Z,32.53
2023-04-20T11:44:29.208Z,31.46
2023-04-20T11:46:59.841Z,30.05
2023-04-20T11:49:28.722Z,28.74
2023-04-20T11:51:55.858Z,28.34
2023-04-20T11:54:23.814Z,29.06
2023-04-20T11:56:50.841Z,30.29
2023-04-20T11:59:20.056Z,31.52
2023-04-20T12:01:47.871Z,32.37
2023-04-20T12:04:15.802Z,32.22
2023-04-20T12:06:42.827Z,31.21
2023-04-20T12:09:10.645Z,29.97
2023-04-20T12:11:37.303Z,28.72
2023-04-20T12:14:04.988Z,27.68
2023-04-20T12:16:31.802Z,26.71
2023-04-20T12:18:58.556Z,25.86
2023-04-20T12:21:25.229Z,25.29
2023-04-20T12:23:51.993Z,24.76
2023-04-20T12:26:18.638Z,24.28
2023-04-20T12:28:45.399Z,23.97
2023-04-20T12:31:12.406Z,24.35
2023-04-20T12:33:39.219Z,25.35
2023-04-20T12:36:06.154Z,26.01
2023-04-20T12:38:32.840Z,26.47
2023-04-20T12:40:59.557Z,26.77
2023-04-20T12:43:26.161Z,27.34
2023-04-20T12:45:52.794Z,27.44
2023-04-20T12:48:19.479Z,26.93
2023-04-20T12:50:46.483Z,26.25
2023-04-20T12:53:13.324Z,25.56
2023-04-20T12:55:40.467Z,25.05
2023-04-20T12:58:07.153Z,24.96
2023-04-20T13:00:34.438Z,25.61
2023-04-20T13:03:01.537Z,26.51
2023-04-20T13:05:29.018Z,27.30
2023-04-20T13:07:56.520Z,27.56
2023-04-20T13:10:23.753Z,27.90
2023-04-20T13:12:52.344Z,28.05
2023-04-20T13:15:31.892Z,28.25
2023-04-20T13:18:06.359Z,28.39
2023-04-20T13:20:33.109Z,28.15
2023-04-20T13:23:01.275Z,27.80
2023-04-20T13:25:32.628Z,27.81
2023-04-20T13:28:00.722Z,28.04
2023-04-20T13:30:28.550Z,28.34
2023-04-20T13:32:55.402Z,28.38
2023-04-20T13:35:22.225Z,28.08
2023-04-20T13:37:49.045Z,27.43
2023-04-20T13:40:16.108Z,26.68
2023-04-20T13:42:44.408Z,25.93
2023-04-20T13:45:13.484Z,25.22
2023-04-20T13:47:40.562Z,24.67
2023-04-20T13:50:08.615Z,24.21
2023-04-20T13:52:35.684Z,23.79
2023-04-20T13:55:02.622Z,23.49
2023-04-20T13:57:33.483Z,23.22
2023-04-20T14:00:02.553Z,22.97
2023-04-20T14:02:33.865Z,22.75
2023-04-20T14:05:04.546Z,22.55
2023-04-20T14:07:34.412Z,22.31
2023-04-20T14:10:06.944Z,22.26
2023-04-20T14:12:36.581Z,22.49
2023-04-20T14:15:05.483Z,22.93
2023-04-20T14:17:34.631Z,23.33
2023-04-20T14:20:04.264Z,23.70
2023-04-20T14:22:36.553Z,24.05
2023-04-20T14:25:05.747Z,24.41
2023-04-20T14:27:34.556Z,24.68
2023-04-20T14:30:04.722Z,24.89
2023-04-20T14:32:36.278Z,25.02
2023-04-20T14:35:06.185Z,24.97
2023-04-20T14:37:36.502Z,24.69
2023-04-20T14:40:07.506Z,24.39
2023-04-20T14:42:38.558Z,24.07
2023-04-20T14:45:07.788Z,23.76
2023-04-20T14:47:36.563Z,23.39
2023-04-20T14:50:05.583Z,22.99
2023-04-20T14:52:35.578Z,22.61
2023-04-20T14:55:04.870Z,22.29
2023-04-20T15:05:02.515Z,21.62
2023-04-20T15:07:29.890Z,21.61
2023-04-20T15:09:56.516Z,21.65
2023-04-20T15:12:23.216Z,21.71
2023-04-20T15:14:49.814Z,21.71
2023-04-20T15:17:16.614Z,21.66
2023-04-20T15:19:46.161Z,21.51
2023-04-20T15:22:13.620Z,21.30
2023-04-20T15:24:41.292Z,21.11
2023-04-20T15:27:08.102Z,20.92
2023-04-20T15:29:34.738Z,20.75
2023-04-20T15:32:01.654Z,20.62
2023-04-20T15:34:29.235Z,20.54
2023-04-20T15:36:56.367Z,20.48
2023-04-20T15:39:23.207Z,20.39
2023-04-20T15:41:49.893Z,20.32
2023-04-20T15:44:17.106Z,20.27
2023-04-20T15:46:44.161Z,20.20
2023-04-20T15:49:10.906Z,20.13
2023-04-20T15:51:38.624Z,20.05
2023-04-20T15:54:06.894Z,19.95
2023-04-20T15:56:33.483Z,19.88
2023-04-20T15:59:00.284Z,19.82
2023-04-20T16:01:27.584Z,19.77
2023-04-20T16:03:54.606Z,19.72
2023-04-20T16:06:21.837Z,19.68
2023-04-20T16:08:50.808Z,19.63
2023-04-20T16:11:17.544Z,19.58
2023-04-20T16:13:44.503Z,19.55
2023-04-20T16:16:11.451Z,19.50
2023-04-20T16:18:38.048Z,19.45
2023-04-20T16:21:04.672Z,19.38
2023-04-20T16:23:31.449Z,19.29
2023-04-20T16:25:58.619Z,19.21
2023-04-20T16:28:26.459Z,19.13
2023-04-20T16:30:53.090Z,19.04
2023-04-20T16:33:20.281Z,18.96
2023-04-20T16:35:46.899Z,18.89
2023-04-20T16:38:13.503Z,18.78
2023-04-20T16:40:40.240Z,18.70
2023-04-20T16:43:06.845Z,18.61
2023-04-20T16:45:33.696Z,18.52
2023-04-20T16:48:00.838Z,18.42
2023-04-20T16:50:27.922Z,18.31
2023-04-20T16:52:56.791Z,18.23
2023-04-20T16:55:24.009Z,18.13
2023-04-20T16:57:50.640Z,18.03
2023-04-20T17:00:17.714Z,17.93
2023-04-20T17:02:44.513Z,17.85
2023-04-20T17:05:11.316Z,17.76
2023-04-20T17:07:37.896Z,17.65
2023-04-20T17:10:06.984Z,17.52
2023-04-20T17:12:33.642Z,17.40
2023-04-20T17:15:00.950Z,17.28
2023-04-20T17:17:28.344Z,17.15
2023-04-20T17:19:55.289Z,17.01
2023-04-20T17:22:22.008Z,16.88
2023-04-20T17:24:48.665Z,16.77
2023-04-20T17:27:16.088Z,16.65
2023-04-20T17:29:44.775Z,16.52
2023-04-20T17:32:12.195Z,16.39
2023-04-20T17:34:40.185Z,16.23
2023-04-20T17:37:07.270Z,16.06
2023-04-20T17:39:34.003Z,15.89
2023-04-20T17:42:01.456Z,15.73
2023-04-20T17:44:28.063Z,15.56
2023-04-20T17:46:54.836Z,15.41
2023-04-20T17:49:21.505Z,15.26
2023-04-20T17:51:48.128Z,15.13
2023-04-20T17:54:15.601Z,15.02
2023-04-20T17:56:42.386Z,14.92
2023-04-20T17:59:09.530Z,14.81
2023-04-20T18:01:36.221Z,14.70
2023-04-20T18:04:04.068Z,14.61
2023-04-20T18:06:33.189Z,14.52
2023-04-20T18:09:01.082Z,14.43
2023-04-20T18:11:28.128Z,14.34
2023-04-20T18:13:54.671Z,14.24
2023-04-20T18:16:21.734Z,14.14
2023-04-20T18:18:50.471Z,14.04
2023-04-20T18:21:17.311Z,13.93
2023-04-20T18:23:43.947Z,13.83
2023-04-20T18:26:17.155Z,13.73
2023-04-20T18:28:47.303Z,13.63
2023-04-20T18:31:14.311Z,13.53
2023-04-20T18:33:41.030Z,13.44
2023-04-20T18:36:07.869Z,13.34
2023-04-20T18:38:35.435Z,13.26
2023-04-20T18:41:02.358Z,13.19
2023-04-20T18:43:28.978Z,13.12
2023-04-20T18:45:55.616Z,13.06
2023-04-20T18:48:22.153Z,12.98
2023-04-20T18:50:49.043Z,12.91
2023-04-20T18:53:15.848Z,12.85
2023-04-20T18:55:42.486Z,12.80
2023-04-20T18:58:09.078Z,12.75
2023-04-20T19:00:35.915Z,12.70
2023-04-20T19:03:02.840Z,12.64
2023-04-20T19:05:31.016Z,12.56
2023-04-20T19:07:57.722Z,12.48
2023-04-20T19:10:25.780Z,12.42
2023-04-20T19:12:52.419Z,12.38
2023-04-20T19:15:25.406Z,12.35
2023-04-20T19:17:54.571Z,12.32
2023-04-20T19:20:23.617Z,12.26
2023-04-20T19:22:50.529Z,12.19
2023-04-20T19:25:17.185Z,12.12
2023-04-20T19:27:43.838Z,12.05
2023-04-20T19:30:10.856Z,11.98
2023-04-20T19:32:37.711Z,11.93
2023-04-20T19:35:04.592Z,11.87
2023-04-20T19:37:31.228Z,11.80
2023-04-20T19:39:57.813Z,11.73
2023-04-20T19:42:24.555Z,11.66
2023-04-20T19:44:51.147Z,11.62
2023-04-20T19:47:17.762Z,11.57
2023-04-20T19:49:44.365Z,11.54
2023-04-20T19:52:11.075Z,11.51
2023-04-20T19:54:37.702Z,11.49
2023-04-20T19:57:04.327Z,11.46
2023-04-20T19:59:32.799Z,11.44
2023-04-20T20:01:59.756Z,11.40
2023-04-20T20:04:27.178Z,11.35
2023-04-20T20:06:54.315Z,11.32
2023-04-20T20:09:24.067Z,11.29
2023-04-20T20:11:51.334Z,11.26
2023-04-20T20:14:18.570Z,11.23
2023-04-20T20:16:45.409Z,11.20
2023-04-20T20:19:12.038Z,11.19
2023-04-20T20:21:38.664Z,11.17
2023-04-20T20:24:05.556Z,11.13
2023-04-20T20:26:32.464Z,11.06
2023-04-20T20:28:59.238Z,11.00
2023-04-20T20:31:25.917Z,10.94
2023-04-20T20:33:52.704Z,10.89
2023-04-20T20:36:19.679Z,10.85
2023-04-20T20:38:47.316Z,10.82
2023-04-20T20:41:14.184Z,10.78
2023-04-20T20:43:43.873Z,10.75
2023-04-20T20:46:10.980Z,10.71
2023-04-20T20:48:37.643Z,10.66
2023-04-20T20:51:04.378Z,10.61
2023-04-20T20:53:31.184Z,10.58
2023-04-20T20:55:57.834Z,10.54
2023-04-20T20:58:24.760Z,10.51
2023-04-20T21:00:51.442Z,10.49
2023-04-20T21:03:18.880Z,10.48
2023-04-20T21:05:46.208Z,10.47
2023-04-20T21:08:13.142Z,10.48
2023-04-20T21:10:40.052Z,10.48
2023-04-20T21:13:07.335Z,10.48
2023-04-20T21:15:34.343Z,10.49
2023-04-20T21:18:01.197Z,10.50
2023-04-20T21:20:27.888Z,10.50
2023-04-20T21:22:54.640Z,10.49
2023-04-20T21:25:21.425Z,10.47
2023-04-20T21:27:48.270Z,10.47
2023-04-20T21:30:14.971Z,10.45
2023-04-20T21:32:41.723Z,10.41
2023-04-20T21:35:08.790Z,10.37
2023-04-20T21:37:36.093Z,10.33
2023-04-20T21:40:03.737Z,10.32
2023-04-20T21:42:30.640Z,10.30
2023-04-20T21:44:57.327Z,10.25
2023-04-20T21:47:24.032Z,10.19
2023-04-20T21:49:50.788Z,10.15
2023-04-20T21:52:17.548Z,10.11
2023-04-20T21:54:44.286Z,10.08
2023-04-20T21:57:10.978Z,10.06
2023-04-20T21:59:37.692Z,10.03
2023-04-20T22:02:04.793Z,10.01
2023-04-20T22:04:32.302Z,10.00
2023-04-20T22:07:00.621Z,9.98
2023-04-20T22:09:27.339Z,9.95
2023-04-20T22:11:54.132Z,9.94
2023-04-20T22:14:20.902Z,9.95
2023-04-20T22:16:48.077Z,9.95
2023-04-20T22:19:14.933Z,9.93
2023-04-20T22:21:43.104Z,9.91
2023-04-20T22:24:09.835Z,9.90
2023-04-20T22:26:36.631Z,9.88
2023-04-20T22:29:03.325Z,9.87
2023-04-20T22:31:30.084Z,9.86
2023-04-20T22:33:56.976Z,9.86
2023-04-20T22:36:23.583Z,9.86
2023-04-20T22:38:50.250Z,9.86
2023-04-20T22:41:17.592Z,9.86
2023-04-20T22:43:46.825Z,9.91
2023-04-20T22:46:13.478Z,9.97
2023-04-20T22:48:41.780Z,10.03
2023-04-20T22:51:08.380Z,10.07
2023-04-20T22:53:35.004Z,10.08
2023-04-20T22:56:07.816Z,10.09
2023-04-20T22:58:34.472Z,10.08
2023-04-20T23:01:01.181Z,10.04
2023-04-20T23:03:28.085Z,9.99
2023-04-20T23:05:57.473Z,9.94
2023-04-20T23:08:25.677Z,9.90
2023-04-20T23:10:55.889Z,9.86
2023-04-20T23:13:24.833Z,9.81
2023-04-20T23:15:52.347Z,9.73
2023-04-20T23:18:19.022Z,9.65
2023-04-20T23:20:45.990Z,9.56
2023-04-20T23:23:12.574Z,9.47
2023-04-20T23:25:39.131Z,9.38
2023-04-20T23:28:06.087Z,9.31
2023-04-20T23:30:32.744Z,9.23
2023-04-20T23:32:59.462Z,9.16
2023-04-20T23:35:26.085Z,9.09
2023-04-20T23:37:52.951Z,9.02
2023-04-20T23:40:19.534Z,8.93
2023-04-20T23:42:46.084Z,8.85
2023-04-20T23:45:12.694Z,8.79
2023-04-20T23:47:39.347Z,8.73
2023-04-20T23:50:06.752Z,8.67
2023-04-20T23:52:33.320Z,8.61
2023-04-20T23:54:59.833Z,8.54
2023-04-20T23:57:26.452Z,8.48
2023-04-20T23:59:53.613Z,8.41
